createdAt,value
2022-12-15T00:02:13.038Z,41.85
2022-12-15T00:04:58.320Z,41.33
2022-12-15T00:07:43.413Z,39.72
2022-12-15T00:10:28.541Z,39.03
2022-12-15T00:13:13.244Z,38.05
2022-12-15T00:15:59.394Z,45.15
2022-12-15T00:18:44.353Z,37.60
2022-12-15T00:21:29.227Z,44.03
2022-12-15T00:24:14.333Z,38.88
2022-12-15T00:26:58.930Z,41.35
2022-12-15T00:29:44.033Z,41.53
2022-12-15T00:32:29.964Z,43.65
2022-12-15T00:35:15.041Z,58.88
2022-12-15T00:38:00.078Z,40.65
2022-12-15T00:40:27.413Z,44.45
2022-12-15T00:42:54.740Z,47.42
2022-12-15T00:45:42.071Z,43.28
2022-12-15T00:48:09.820Z,39.30
2022-12-15T00:50:55.244Z,42.97
2022-12-15T00:53:40.590Z,42.13
2022-12-15T00:56:25.744Z,48.00
2022-12-15T00:59:11.227Z,44.97
2022-12-15T01:01:56.672Z,49.00
2022-12-15T01:04:42.811Z,45.95
2022-12-15T01:07:27.717Z,47.83
2022-12-15T01:10:12.392Z,42.53
2022-12-15T01:12:57.578Z,44.85
2022-12-15T01:15:42.370Z,41.05
2022-12-15T01:18:27.265Z,49.85
2022-12-15T01:20:59.349Z,41.42
2022-12-15T01:23:27.033Z,41.13
2022-12-15T01:25:57.460Z,46.95
2022-12-15T01:28:25.412Z,50.03
2022-12-15T01:30:52.806Z,43.70
2022-12-15T01:33:20.789Z,45.50
2022-12-15T01:35:55.667Z,40.30
2022-12-15T01:38:24.441Z,43.08
2022-12-15T01:40:51.822Z,41.10
2022-12-15T01:43:22.260Z,47.15
2022-12-15T01:45:59.645Z,40.75
2022-12-15T01:48:31.809Z,46.67
2022-12-15T01:51:01.289Z,43.03
2022-12-15T01:53:31.976Z,43.33
2022-12-15T01:56:00.048Z,48.45
2022-12-15T01:58:27.758Z,48.85
2022-12-15T02:00:55.249Z,38.20
2022-12-15T02:03:23.359Z,46.92
2022-12-15T02:05:50.825Z,41.22
2022-12-15T02:08:18.470Z,38.97
2022-12-15T02:10:59.098Z,44.10
2022-12-15T02:13:30.250Z,44.38
2022-12-15T02:16:03.181Z,47.38
2022-12-15T02:18:33.968Z,48.53
2022-12-15T02:21:02.361Z,47.42
2022-12-15T02:23:57.938Z,42.90
2022-12-15T02:26:39.351Z,48.22
2022-12-15T02:29:13.079Z,48.38
2022-12-15T02:31:53.765Z,39.30
2022-12-15T02:34:24.242Z,40.22
2022-12-15T02:36:53.275Z,50.47
2022-12-15T02:39:20.825Z,41.28
2022-12-15T02:41:48.928Z,50.80
2022-12-15T02:44:19.083Z,43.28
2022-12-15T02:46:56.408Z,39.50
2022-12-15T02:49:29.499Z,47.55
2022-12-15T02:52:03.365Z,44.10
2022-12-15T02:54:43.947Z,44.72
2022-12-15T02:57:18.279Z,33.83
2022-12-15T02:59:47.232Z,44.35
2022-12-15T03:02:16.251Z,45.10
2022-12-15T03:04:45.389Z,45.53
2022-12-15T03:07:12.748Z,43.90
2022-12-15T03:09:40.151Z,45.38
2022-12-15T03:12:07.891Z,41.25
2022-12-15T03:14:35.371Z,41.60
2022-12-15T03:17:04.013Z,44.60
2022-12-15T03:19:32.665Z,47.42
2022-12-15T03:22:00.012Z,38.75
2022-12-15T03:24:27.341Z,45.00
2022-12-15T03:26:54.705Z,39.20
2022-12-15T03:29:22.248Z,47.60
2022-12-15T03:31:49.860Z,42.08
2022-12-15T03:34:17.929Z,43.85
2022-12-15T03:36:46.793Z,41.92
2022-12-15T03:39:14.156Z,42.88
2022-12-15T03:41:42.461Z,43.10
2022-12-15T03:44:09.955Z,42.50
2022-12-15T03:46:37.257Z,41.50
2022-12-15T03:49:04.710Z,61.92
2022-12-15T03:51:32.300Z,49.25
2022-12-15T03:54:00.990Z,47.13
2022-12-15T03:56:28.357Z,47.97
2022-12-15T03:58:55.660Z,57.97
2022-12-15T04:01:27.026Z,43.13
2022-12-15T04:04:00.244Z,49.63
2022-12-15T04:06:28.695Z,52.90
2022-12-15T04:08:56.014Z,46.15
2022-12-15T04:11:24.670Z,51.15
2022-12-15T04:13:52.002Z,50.80
2022-12-15T04:16:20.404Z,44.42
2022-12-15T04:19:08.016Z,48.15
2022-12-15T04:21:34.355Z,46.38
2022-12-15T04:24:19.370Z,46.92
2022-12-15T04:27:05.799Z,44.05
2022-12-15T04:29:50.774Z,50.72
2022-12-15T04:32:35.487Z,48.08
2022-12-15T04:35:20.476Z,42.72
2022-12-15T04:38:05.432Z,44.25
2022-12-15T04:40:50.093Z,47.65
2022-12-15T04:43:36.741Z,44.35
2022-12-15T04:46:21.702Z,44.92
2022-12-15T04:49:06.527Z,42.15
2022-12-15T04:51:51.756Z,40.65
2022-12-15T04:54:36.619Z,43.95
2022-12-15T04:57:21.243Z,45.50
2022-12-15T05:00:07.337Z,41.33
2022-12-15T05:02:52.417Z,44.50
2022-12-15T05:05:37.339Z,43.83
2022-12-15T05:08:22.298Z,41.00
2022-12-15T05:11:07.024Z,47.40
2022-12-15T05:13:52.039Z,42.78
2022-12-15T05:16:38.074Z,42.95
2022-12-15T05:19:23.304Z,45.40
2022-12-15T05:22:08.321Z,44.60
2022-12-15T05:24:53.194Z,39.65
2022-12-15T05:27:37.923Z,39.53
2022-12-15T05:30:22.907Z,40.30
2022-12-15T05:32:51.612Z,41.75
2022-12-15T05:35:18.973Z,38.38
2022-12-15T05:37:46.376Z,43.05
2022-12-15T05:40:13.775Z,44.35
2022-12-15T05:42:41.095Z,37.78
2022-12-15T05:45:10.146Z,37.70
2022-12-15T05:47:37.420Z,39.38
2022-12-15T05:50:06.682Z,42.85
2022-12-15T05:52:34.024Z,39.95
2022-12-15T05:55:01.387Z,41.45
2022-12-15T05:57:28.831Z,37.30
2022-12-15T05:59:56.150Z,44.85
2022-12-15T06:02:23.548Z,46.08
2022-12-15T06:04:51.010Z,40.70
2022-12-15T06:07:19.791Z,45.72
2022-12-15T06:09:47.357Z,48.35
2022-12-15T06:12:14.665Z,54.25
2022-12-15T06:14:42.344Z,50.25
2022-12-15T06:17:09.624Z,54.25
2022-12-15T06:19:36.932Z,54.05
2022-12-15T06:22:04.274Z,54.33
2022-12-15T06:24:32.935Z,54.53
2022-12-15T06:27:00.292Z,58.85
2022-12-15T06:29:27.680Z,49.40
2022-12-15T06:31:55.131Z,56.33
2022-12-15T06:34:22.579Z,58.55
2022-12-15T06:36:50.128Z,57.45
2022-12-15T06:39:17.752Z,57.83
2022-12-15T06:41:46.485Z,59.70
2022-12-15T06:44:14.917Z,60.42
2022-12-15T06:46:42.916Z,64.45
2022-12-15T06:49:10.522Z,63.42
2022-12-15T06:51:38.072Z,54.88
2022-12-15T06:54:05.531Z,57.40
2022-12-15T06:56:34.793Z,54.13
2022-12-15T06:59:04.506Z,55.80
2022-12-15T07:01:32.477Z,51.75
2022-12-15T07:04:01.333Z,52.55
2022-12-15T07:06:30.191Z,55.40
2022-12-15T07:08:57.566Z,58.78
2022-12-15T07:11:25.087Z,51.88
2022-12-15T07:13:52.995Z,58.10
2022-12-15T07:16:22.805Z,50.22
2022-12-15T07:18:50.274Z,51.63
2022-12-15T07:21:17.748Z,52.00
2022-12-15T07:24:01.588Z,53.47
2022-12-15T07:26:30.315Z,50.65
2022-12-15T07:28:57.616Z,58.45
2022-12-15T07:31:26.991Z,52.08
2022-12-15T07:33:54.587Z,50.40
2022-12-15T07:36:22.208Z,55.35
2022-12-15T07:38:50.705Z,58.97
2022-12-15T07:41:18.995Z,53.40
2022-12-15T07:43:47.500Z,50.97
2022-12-15T07:46:14.961Z,54.50
2022-12-15T07:48:43.785Z,58.60
2022-12-15T07:51:17.377Z,55.88
2022-12-15T07:53:46.861Z,70.32
2022-12-15T07:56:15.232Z,58.58
2022-12-15T07:58:42.840Z,59.92
2022-12-15T08:01:12.120Z,68.20
2022-12-15T08:03:40.662Z,62.35
2022-12-15T08:06:11.109Z,79.40
2022-12-15T08:08:38.756Z,71.30
2022-12-15T08:11:06.264Z,73.05
2022-12-15T08:16:21.565Z,81.10
2022-12-15T08:18:49.243Z,82.10
2022-12-15T08:21:18.247Z,82.75
2022-12-15T08:23:45.830Z,90.07
2022-12-15T08:26:14.412Z,76.32
2022-12-15T08:28:42.176Z,95.00
2022-12-15T08:31:10.442Z,81.85
2022-12-15T08:33:38.092Z,82.15
2022-12-15T08:36:06.909Z,107.30
2022-12-15T08:38:36.169Z,107.25
2022-12-15T08:41:07.761Z,86.25
2022-12-15T08:43:35.340Z,99.47
2022-12-15T08:46:02.772Z,107.82
2022-12-15T08:48:30.099Z,116.40
2022-12-15T08:50:57.818Z,108.55
2022-12-15T08:53:32.609Z,102.20
2022-12-15T08:56:05.604Z,122.68
2022-12-15T08:58:33.198Z,124.43
2022-12-15T09:01:01.042Z,117.55
2022-12-15T09:03:28.642Z,116.20
2022-12-15T09:05:57.400Z,121.43
2022-12-15T09:08:24.848Z,114.90
2022-12-15T09:10:52.581Z,90.00
2022-12-15T09:13:21.511Z,120.50
2022-12-15T09:16:11.779Z,138.85
2022-12-15T09:18:39.377Z,148.75
2022-12-15T09:21:08.029Z,130.95
2022-12-15T09:23:36.444Z,148.57
2022-12-15T09:26:04.792Z,129.70
2022-12-15T09:28:33.538Z,144.35
2022-12-15T09:31:02.919Z,145.32
2022-12-15T09:33:30.898Z,150.75
2022-12-15T09:35:58.545Z,154.80
2022-12-15T09:38:25.861Z,157.02
2022-12-15T09:40:53.420Z,149.52
2022-12-15T09:43:42.919Z,157.02
2022-12-15T09:46:16.127Z,136.75
2022-12-15T09:48:45.376Z,153.90
2022-12-15T09:51:15.238Z,139.13
2022-12-15T09:53:54.703Z,120.78
2022-12-15T09:56:28.342Z,142.38
2022-12-15T09:58:58.737Z,148.38
2022-12-15T10:01:33.392Z,140.23
2022-12-15T10:04:06.564Z,117.38
2022-12-15T10:06:36.873Z,143.20
2022-12-15T10:09:10.252Z,134.90
2022-12-15T10:11:43.979Z,144.30
2022-12-15T10:14:17.167Z,152.23
2022-12-15T10:16:51.076Z,146.25
2022-12-15T10:19:20.497Z,149.27
2022-12-15T10:25:08.762Z,128.68
2022-12-15T10:27:30.350Z,137.68
2022-12-15T10:30:01.028Z,145.38
2022-12-15T10:32:35.435Z,156.25
2022-12-15T10:35:08.478Z,132.70
2022-12-15T10:37:36.344Z,165.70
2022-12-15T10:40:03.805Z,137.48
2022-12-15T10:42:31.153Z,152.15
2022-12-15T10:44:59.000Z,141.05
2022-12-15T10:47:27.438Z,153.55
2022-12-15T10:49:56.941Z,143.80
2022-12-15T10:52:27.300Z,116.80
2022-12-15T10:54:55.241Z,154.63
2022-12-15T10:57:24.119Z,173.43
2022-12-15T10:59:52.250Z,163.40
2022-12-15T11:02:26.994Z,170.02
2022-12-15T11:04:59.512Z,167.48
2022-12-15T11:07:29.016Z,168.43
2022-12-15T11:09:59.711Z,173.50
2022-12-15T11:12:47.092Z,169.18
2022-12-15T11:15:37.974Z,175.85
2022-12-15T11:18:11.136Z,193.73
2022-12-15T11:20:41.801Z,171.25
2022-12-15T11:23:14.228Z,193.23
2022-12-15T11:25:43.788Z,207.30
2022-12-15T11:28:16.454Z,219.07
2022-12-15T11:30:46.470Z,224.35
2022-12-15T11:33:14.212Z,215.75
2022-12-15T11:35:50.120Z,225.35
2022-12-15T11:38:20.838Z,194.85
2022-12-15T11:40:48.460Z,173.85
2022-12-15T11:43:33.429Z,191.70
2022-12-15T11:46:20.533Z,195.30
2022-12-15T11:48:54.663Z,201.35
2022-12-15T11:51:25.904Z,194.73
2022-12-15T11:54:00.107Z,163.00
2022-12-15T11:59:03.459Z,205.63
2022-12-15T12:04:33.466Z,198.50
2022-12-15T12:07:09.429Z,189.68
2022-12-15T12:09:37.418Z,198.30
2022-12-15T12:12:17.100Z,203.93
2022-12-15T12:14:50.451Z,209.25
2022-12-15T12:17:41.277Z,193.98
2022-12-15T12:20:14.837Z,181.70
2022-12-15T12:22:46.514Z,188.98
2022-12-15T12:25:18.792Z,199.98
2022-12-15T12:27:50.295Z,194.57
2022-12-15T12:30:18.935Z,178.23
2022-12-15T12:32:50.622Z,187.85
2022-12-15T12:35:32.248Z,176.00
2022-12-15T12:38:04.482Z,154.68
2022-12-15T12:40:37.724Z,162.57
2022-12-15T12:43:11.836Z,165.32
2022-12-15T12:45:43.815Z,162.65
2022-12-15T12:48:14.759Z,152.60
2022-12-15T12:50:42.534Z,167.93
2022-12-15T12:53:22.911Z,158.18
2022-12-15T12:55:50.267Z,155.20
2022-12-15T12:58:35.080Z,155.75
2022-12-15T13:01:19.866Z,137.88
2022-12-15T13:03:48.084Z,138.85
2022-12-15T13:06:23.955Z,150.32
2022-12-15T13:08:55.714Z,136.10
2022-12-15T13:11:41.530Z,135.25
2022-12-15T13:14:19.710Z,135.82
2022-12-15T13:17:17.184Z,137.70
2022-12-15T13:19:56.270Z,128.50
2022-12-15T13:22:24.847Z,114.15
2022-12-15T13:24:53.627Z,114.65
2022-12-15T13:27:21.141Z,112.57
2022-12-15T13:29:56.136Z,109.20
2022-12-15T13:32:31.447Z,110.70
2022-12-15T13:35:03.269Z,113.53
2022-12-15T13:37:46.591Z,97.63
2022-12-15T13:40:33.720Z,98.80
2022-12-15T13:43:09.157Z,95.68
2022-12-15T13:45:48.966Z,94.10
2022-12-15T13:48:30.253Z,89.30
2022-12-15T13:51:05.308Z,84.97
2022-12-15T13:53:37.395Z,86.00
2022-12-15T13:56:08.753Z,87.47
2022-12-15T13:58:42.603Z,87.47
2022-12-15T14:01:28.596Z,84.63
2022-12-15T14:04:00.144Z,81.57
2022-12-15T14:06:30.259Z,83.10
2022-12-15T14:08:57.784Z,78.03
2022-12-15T14:11:51.886Z,87.70
2022-12-15T14:14:23.346Z,80.93
2022-12-15T14:16:56.979Z,72.13
2022-12-15T14:19:25.059Z,75.82
2022-12-15T14:21:55.540Z,74.93
2022-12-15T14:24:41.350Z,72.07
2022-12-15T14:27:13.572Z,72.60
2022-12-15T14:29:41.784Z,67.18
2022-12-15T14:32:10.527Z,68.55
2022-12-15T14:34:41.674Z,69.35
2022-12-15T14:37:11.534Z,61.92
2022-12-15T14:39:50.387Z,64.18
2022-12-15T14:42:25.008Z,66.15
2022-12-15T14:47:27.856Z,67.45
2022-12-15T14:49:56.735Z,61.50
2022-12-15T14:52:29.336Z,71.40
2022-12-15T14:54:58.892Z,69.03
2022-12-15T14:57:28.793Z,70.50
2022-12-15T14:59:56.350Z,77.47
2022-12-15T15:02:29.402Z,72.95
2022-12-15T15:03:04.321Z,148.88
2022-12-15T15:03:06.971Z,198.13
2022-12-15T15:05:04.572Z,72.32
2022-12-15T15:07:43.573Z,69.95
2022-12-15T15:10:22.967Z,65.35
2022-12-15T15:12:53.775Z,71.22
2022-12-15T15:15:23.906Z,67.43
2022-12-15T15:17:56.026Z,64.57
2022-12-15T15:20:26.946Z,69.07
2022-12-15T15:23:11.627Z,67.72
2022-12-15T15:25:43.947Z,69.53
2022-12-15T15:28:26.805Z,72.78
2022-12-15T15:30:56.121Z,76.00
2022-12-15T15:33:28.760Z,93.65
2022-12-15T15:35:58.437Z,75.53
2022-12-15T15:38:30.555Z,81.95
2022-12-15T15:41:00.212Z,68.60
2022-12-15T15:43:29.471Z,57.55
2022-12-15T15:46:00.202Z,74.40
2022-12-15T15:48:29.784Z,63.58
2022-12-15T15:50:57.842Z,68.15
2022-12-15T15:53:25.882Z,70.13
2022-12-15T15:55:56.436Z,74.82
2022-12-15T15:58:27.297Z,81.07
2022-12-15T16:00:58.798Z,75.20
2022-12-15T16:03:29.620Z,81.00
2022-12-15T16:06:06.570Z,82.65
2022-12-15T16:08:38.701Z,88.65
2022-12-15T16:11:11.676Z,80.60
2022-12-15T16:13:45.344Z,94.95
2022-12-15T16:16:17.800Z,82.25
2022-12-15T16:18:51.213Z,87.28
2022-12-15T16:21:18.890Z,81.60
2022-12-15T16:23:47.960Z,85.57
2022-12-15T16:26:16.527Z,82.82
2022-12-15T16:28:43.981Z,90.07
2022-12-15T16:31:15.200Z,71.90
2022-12-15T16:33:43.963Z,71.32
2022-12-15T16:36:12.838Z,67.82
2022-12-15T16:38:40.827Z,75.97
2022-12-15T16:41:09.436Z,79.32
2022-12-15T16:43:40.424Z,73.40
2022-12-15T16:46:12.653Z,66.55
2022-12-15T16:48:40.054Z,65.70
2022-12-15T16:51:09.926Z,69.10
2022-12-15T16:53:38.585Z,64.68
2022-12-15T16:56:06.983Z,67.47
2022-12-15T16:58:36.359Z,62.53
2022-12-15T17:01:03.813Z,62.00
2022-12-15T17:03:31.601Z,61.85
2022-12-15T17:06:00.751Z,77.43
2022-12-15T17:08:33.261Z,68.22
2022-12-15T17:11:01.101Z,73.32
2022-12-15T17:13:36.610Z,73.03
2022-12-15T17:16:06.228Z,69.13
2022-12-15T17:18:34.283Z,69.07
2022-12-15T17:21:03.507Z,66.28
2022-12-15T17:23:32.527Z,66.57
2022-12-15T17:26:30.323Z,70.97
2022-12-15T17:28:47.592Z,69.63
2022-12-15T17:31:17.800Z,75.88
2022-12-15T17:33:45.419Z,67.07
2022-12-15T17:36:15.656Z,69.65
2022-12-15T17:38:44.460Z,69.90
2022-12-15T17:41:34.991Z,72.07
2022-12-15T17:46:48.340Z,76.70
2022-12-15T17:49:15.874Z,76.20
2022-12-15T17:51:43.681Z,75.45
2022-12-15T17:54:13.620Z,76.30
2022-12-15T17:56:41.719Z,74.13
2022-12-15T17:59:12.884Z,72.05
2022-12-15T18:01:40.286Z,86.20
2022-12-15T18:04:07.862Z,79.47
2022-12-15T18:06:35.274Z,67.50
2022-12-15T18:09:02.656Z,69.70
2022-12-15T18:11:31.390Z,70.30
2022-12-15T18:13:58.787Z,69.82
2022-12-15T18:16:26.653Z,74.35
2022-12-15T18:18:54.029Z,72.57
2022-12-15T18:21:24.067Z,82.35
2022-12-15T18:23:52.121Z,79.00
2022-12-15T18:26:19.492Z,81.57
2022-12-15T18:28:49.482Z,80.30
2022-12-15T18:31:21.276Z,80.18
2022-12-15T18:33:49.167Z,77.32
2022-12-15T18:36:17.660Z,77.30
2022-12-15T18:38:45.213Z,81.18
2022-12-15T18:41:14.109Z,80.55
2022-12-15T18:43:41.991Z,84.40
2022-12-15T18:46:11.556Z,86.85
2022-12-15T18:48:39.688Z,85.22
2022-12-15T18:51:14.091Z,81.72
2022-12-15T18:53:41.537Z,86.70
2022-12-15T18:56:09.713Z,80.53
2022-12-15T18:58:37.897Z,84.22
2022-12-15T19:01:05.978Z,86.47
2022-12-15T19:03:36.099Z,89.05
2022-12-15T19:06:10.517Z,93.65
2022-12-15T19:08:38.342Z,113.22
2022-12-15T19:11:06.820Z,96.32
2022-12-15T19:13:35.465Z,83.22
2022-12-15T19:16:03.918Z,98.90
2022-12-15T19:18:48.660Z,98.82
2022-12-15T19:21:36.544Z,257.58
2022-12-15T19:24:04.450Z,117.57
2022-12-15T19:26:31.720Z,108.07
2022-12-15T19:28:59.195Z,102.53
2022-12-15T19:31:26.622Z,134.63
2022-12-15T19:33:54.005Z,112.68
2022-12-15T19:36:24.501Z,115.65
2022-12-15T19:38:53.654Z,107.88
2022-12-15T19:41:21.360Z,93.97
2022-12-15T19:43:48.809Z,89.75
2022-12-15T19:46:17.862Z,92.18
2022-12-15T19:48:45.579Z,96.78
2022-12-15T19:51:14.017Z,113.00
2022-12-15T19:53:43.296Z,114.10
2022-12-15T19:56:13.907Z,115.35
2022-12-15T19:58:41.652Z,130.98
2022-12-15T20:01:10.970Z,89.07
2022-12-15T20:03:39.232Z,101.70
2022-12-15T20:06:11.657Z,104.85
2022-12-15T20:08:41.095Z,109.05
2022-12-15T20:11:15.992Z,112.85
2022-12-15T20:13:44.758Z,100.07
2022-12-15T20:16:15.632Z,106.03
2022-12-15T20:18:43.069Z,84.40
2022-12-15T20:21:10.915Z,88.20
2022-12-15T20:23:42.536Z,123.65
2022-12-15T20:26:12.791Z,104.28
2022-12-15T20:28:40.117Z,91.65
2022-12-15T20:31:07.469Z,88.57
2022-12-15T20:33:35.247Z,92.88
2022-12-15T20:36:02.828Z,119.82
2022-12-15T20:38:31.816Z,136.70
2022-12-15T20:40:59.817Z,111.03
2022-12-15T20:43:31.060Z,116.13
2022-12-15T20:46:01.364Z,136.00
2022-12-15T20:48:29.911Z,111.25
2022-12-15T20:50:57.652Z,111.13
2022-12-15T20:53:26.013Z,98.65
2022-12-15T20:55:54.526Z,97.22
2022-12-15T20:58:22.203Z,100.82
2022-12-15T21:00:51.915Z,115.43
2022-12-15T21:03:22.298Z,106.53
2022-12-15T21:05:50.376Z,118.13
2022-12-15T21:08:19.075Z,106.95
2022-12-15T21:10:47.043Z,105.55
2022-12-15T21:13:20.958Z,88.43
2022-12-15T21:15:48.679Z,99.80
2022-12-15T21:19:03.560Z,87.13
2022-12-15T21:21:07.774Z,87.25
2022-12-15T21:23:42.564Z,68.85
2022-12-15T21:26:11.311Z,80.95
2022-12-15T21:28:41.599Z,71.63
2022-12-15T21:31:09.036Z,69.57
2022-12-15T21:33:37.749Z,77.63
2022-12-15T21:36:05.158Z,73.20
2022-12-15T21:38:35.055Z,76.43
2022-12-15T21:41:04.535Z,84.95
2022-12-15T21:43:33.107Z,87.97
2022-12-15T21:46:01.414Z,84.00
2022-12-15T21:48:46.352Z,78.25
2022-12-15T21:51:15.867Z,87.63
2022-12-15T21:53:43.958Z,79.32
2022-12-15T21:56:14.792Z,75.88
2022-12-15T21:58:42.101Z,82.53
2022-12-15T22:01:12.976Z,77.50
2022-12-15T22:03:40.435Z,76.80
2022-12-15T22:06:14.137Z,83.75
2022-12-15T22:08:42.798Z,80.55
2022-12-15T22:11:17.190Z,67.32
2022-12-15T22:13:44.690Z,70.97
2022-12-15T22:16:12.087Z,95.47
2022-12-15T22:18:39.552Z,94.32
2022-12-15T22:21:07.796Z,106.68
2022-12-15T22:23:35.288Z,90.43
2022-12-15T22:26:04.037Z,92.00
2022-12-15T22:28:31.800Z,83.93
2022-12-15T22:30:59.439Z,88.70
2022-12-15T22:33:27.328Z,101.30
2022-12-15T22:35:55.406Z,86.65
2022-12-15T22:38:23.593Z,80.60
2022-12-15T22:40:52.070Z,77.43
2022-12-15T22:43:22.940Z,84.50
2022-12-15T22:45:51.986Z,86.00
2022-12-15T22:48:20.712Z,76.93
2022-12-15T22:50:48.123Z,74.30
2022-12-15T22:53:15.912Z,79.32
2022-12-15T22:55:44.091Z,81.22
2022-12-15T22:58:13.018Z,75.95
2022-12-15T23:00:41.723Z,78.57
2022-12-15T23:03:10.946Z,78.75
2022-12-15T23:05:40.313Z,71.60
2022-12-15T23:08:07.794Z,72.28
2022-12-15T23:10:52.566Z,82.32
2022-12-15T23:13:22.136Z,74.53
2022-12-15T23:16:09.707Z,80.28
2022-12-15T23:18:37.074Z,78.13
2022-12-15T23:21:04.559Z,79.85
2022-12-15T23:23:33.963Z,78.88
2022-12-15T23:26:01.670Z,76.57
2022-12-15T23:28:29.021Z,77.75
2022-12-15T23:30:57.811Z,73.43
2022-12-15T23:33:25.717Z,85.88
2022-12-15T23:35:54.899Z,94.80
2022-12-15T23:38:22.378Z,83.15
2022-12-15T23:40:52.821Z,82.85
2022-12-15T23:43:20.936Z,86.63
2022-12-15T23:45:55.755Z,90.68
2022-12-15T23:48:25.265Z,84.82
2022-12-15T23:50:55.560Z,84.50
2022-12-15T23:53:22.938Z,78.10
2022-12-15T23:55:50.263Z,150.18
2022-12-15T23:58:19.707Z,292.75
